Time;durP1;ratioP1;P1;durP2;ratioP2;P2;SDS_P1;SDS_P2;PMS_P1;PMS_P2;Temp;Humidity;BMP_temperature;BMP_pressure;BME280_temperature;BME280_humidity;BME280_pressure;Samples;Min_cycle;Max_cycle;Signal;HPM_P1;HPM_P2
2023/01/13 00:01:15;;;;;;;3.72;3.22;;;;;;;;;;5002832;28;20045;-66
2023/01/13 00:03:41;;;;;;;3.78;2.85;;;;;;;;;;5004327;28;20149;-66
2023/01/13 00:06:12;;;;;;;3.15;2.85;;;;;;;;;;5005489;28;20105;-66
2023/01/13 00:08:37;;;;;;;3.40;3.10;;;;;;;;;;5004113;28;20049;-66
2023/01/13 00:11:03;;;;;;;3.45;3.25;;;;;;;;;;5004066;28;20487;-66
2023/01/13 00:13:30;;;;;;;3.67;3.30;;;;;;;;;;5004586;28;20044;-66
2023/01/13 00:16:00;;;;;;;6.05;3.30;;;;;;;;;;5004712;28;20308;-66
2023/01/13 00:18:26;;;;;;;3.42;3.17;;;;;;;;;;5001558;28;20033;-67
2023/01/13 00:20:59;;;;;;;3.15;2.90;;;;;;;;;;5003664;28;20048;-68
2023/01/13 00:23:29;;;;;;;3.22;3.03;;;;;;;;;;5003783;28;20512;-67
2023/01/13 00:25:57;;;;;;;3.30;3.00;;;;;;;;;;5002599;28;20034;-67
2023/01/13 00:28:23;;;;;;;3.55;3.00;;;;;;;;;;5004005;28;20511;-67
2023/01/13 00:30:48;;;;;;;2.88;2.78;;;;;;;;;;5003799;28;20810;-67
2023/01/13 00:33:14;;;;;;;3.13;2.90;;;;;;;;;;5002589;28;20052;-67
2023/01/13 00:35:39;;;;;;;3.45;3.22;;;;;;;;;;5004183;28;20220;-67
2023/01/13 00:38:05;;;;;;;3.42;3.05;;;;;;;;;;5004305;28;20044;-67
2023/01/13 00:40:30;;;;;;;4.07;2.90;;;;;;;;;;5004178;28;20545;-66
2023/01/13 00:45:41;;;;;;;3.10;2.90;;;;;;;;;;5004674;28;20030;-67
2023/01/13 00:48:06;;;;;;;3.60;2.70;;;;;;;;;;5002358;28;20042;-67
2023/01/13 00:50:32;;;;;;;5.82;3.20;;;;;;;;;;5002258;28;20050;-66
2023/01/13 00:53:00;;;;;;;3.42;3.00;;;;;;;;;;5003808;28;20392;-67
2023/01/13 00:55:29;;;;;;;2.83;2.67;;;;;;;;;;5003680;28;20033;-66
2023/01/13 00:58:02;;;;;;;3.60;2.80;;;;;;;;;;5003628;28;20040;-67
2023/01/13 01:00:28;;;;;;;4.75;3.03;;;;;;;;;;5001736;28;20034;-66
2023/01/13 01:02:54;;;;;;;3.20;3.00;;;;;;;;;;4998882;28;20987;-66
2023/01/13 01:05:20;;;;;;;3.08;2.88;;;;;;;;;;5003710;28;20037;-66
2023/01/13 01:07:46;;;;;;;3.28;2.97;;;;;;;;;;5002593;28;20468;-66
2023/01/13 01:10:11;;;;;;;3.17;2.90;;;;;;;;;;5002736;28;20144;-66
2023/01/13 01:12:37;;;;;;;3.55;3.30;;;;;;;;;;5004125;28;20382;-66
2023/01/13 01:15:04;;;;;;;3.17;2.90;;;;;;;;;;5003315;28;20095;-67
2023/01/13 01:17:30;;;;;;;3.20;3.00;;;;;;;;;;5001772;28;20046;-66
2023/01/13 01:19:56;;;;;;;3.25;3.05;;;;;;;;;;5003544;28;20108;-66
2023/01/13 01:22:21;;;;;;;3.55;3.03;;;;;;;;;;5002831;28;20497;-66
2023/01/13 01:24:47;;;;;;;2.67;2.58;;;;;;;;;;5001667;28;20033;-66
2023/01/13 01:27:12;;;;;;;3.10;2.90;;;;;;;;;;5003286;28;20116;-66
2023/01/13 01:29:38;;;;;;;3.55;3.10;;;;;;;;;;5002852;28;20072;-66
2023/01/13 01:32:04;;;;;;;3.33;3.08;;;;;;;;;;5001646;28;21174;-65
2023/01/13 01:34:29;;;;;;;3.03;2.83;;;;;;;;;;5003350;28;20060;-67
2023/01/13 01:36:55;;;;;;;3.05;2.83;;;;;;;;;;5003007;28;20038;-66
2023/01/13 01:39:21;;;;;;;3.45;3.15;;;;;;;;;;5002666;28;20121;-66
2023/01/13 01:44:42;;;;;;;2.90;2.70;;;;;;;;;;5002588;28;20061;-66
2023/01/13 01:47:15;;;;;;;3.33;3.03;;;;;;;;;;5003317;28;20037;-66
2023/01/13 01:49:44;;;;;;;3.20;3.00;;;;;;;;;;5001709;28;20517;-65
2023/01/13 01:52:17;;;;;;;3.47;3.10;;;;;;;;;;5002897;28;20124;-66
2023/01/13 01:54:49;;;;;;;4.25;3.67;;;;;;;;;;5003276;28;20036;-66
2023/01/13 01:57:23;;;;;;;4.78;2.92;;;;;;;;;;5002028;28;20088;-66
2023/01/13 01:59:48;;;;;;;3.70;3.40;;;;;;;;;;5001707;28;20033;-66
2023/01/13 02:02:14;;;;;;;2.97;2.80;;;;;;;;;;4997031;28;20044;-66
2023/01/13 02:04:49;;;;;;;3.92;3.28;;;;;;;;;;5002791;28;20038;-66
2023/01/13 02:07:27;;;;;;;3.20;3.00;;;;;;;;;;5001260;28;20026;-66
2023/01/13 02:09:54;;;;;;;3.33;2.95;;;;;;;;;;5002901;28;20049;-67
2023/01/13 02:12:31;;;;;;;3.25;2.95;;;;;;;;;;5003045;28;20030;-67
2023/01/13 02:15:05;;;;;;;3.10;2.90;;;;;;;;;;5003036;28;20029;-67
2023/01/13 02:18:11;;;;;;;4.72;3.35;;;;;;;;;;5000975;28;20492;-67
2023/01/13 02:20:40;;;;;;;3.10;2.90;;;;;;;;;;5002438;28;20540;-67
2023/01/13 02:24:52;;;;;;;4.15;3.10;;;;;;;;;;5002836;28;20041;-68
2023/01/13 02:26:21;;;;;;;4.40;2.97;;;;;;;;;;5001193;28;20396;-67
2023/01/13 02:31:43;;;;;;;3.13;2.92;;;;;;;;;;5001962;28;20042;-67
2023/01/13 02:34:35;;;;;;;3.53;3.20;;;;;;;;;;5000091;28;20076;-67
2023/01/13 02:37:12;;;;;;;3.63;3.33;;;;;;;;;;5002502;28;20492;-67
2023/01/13 02:39:55;;;;;;;3.50;3.10;;;;;;;;;;5001121;28;20511;-66
2023/01/13 02:45:16;;;;;;;3.28;3.00;;;;;;;;;;5002491;28;20038;-67
2023/01/13 02:47:45;;;;;;;3.22;2.88;;;;;;;;;;5002302;28;20030;-67
2023/01/13 02:50:19;;;;;;;3.13;2.92;;;;;;;;;;5000098;28;20056;-67
2023/01/13 02:52:52;;;;;;;3.00;2.83;;;;;;;;;;5002354;28;20116;-67
2023/01/13 02:55:28;;;;;;;4.88;3.10;;;;;;;;;;5003682;28;20041;-67
2023/01/13 02:57:57;;;;;;;2.85;2.70;;;;;;;;;;5005145;28;20032;-66
2023/01/13 03:00:23;;;;;;;3.40;3.10;;;;;;;;;;5005886;28;20038;-67
2023/01/13 03:02:49;;;;;;;3.40;3.10;;;;;;;;;;4999906;28;20088;-67
2023/01/13 03:05:16;;;;;;;3.50;2.90;;;;;;;;;;5005423;28;20897;-67
2023/01/13 03:08:24;;;;;;;4.50;3.15;;;;;;;;;;5005283;28;20550;-68
2023/01/13 03:10:59;;;;;;;3.65;3.35;;;;;;;;;;4987603;28;20046;-67
2023/01/13 03:13:49;;;;;;;3.65;3.28;;;;;;;;;;5005605;28;20072;-67
2023/01/13 03:16:37;;;;;;;3.60;3.30;;;;;;;;;;5007247;28;20389;-67
2023/01/13 03:19:08;;;;;;;4.50;3.20;;;;;;;;;;5008534;28;20022;-67
2023/01/13 03:21:58;;;;;;;3.58;3.28;;;;;;;;;;5004119;28;20038;-67
2023/01/13 03:24:29;;;;;;;6.05;3.17;;;;;;;;;;5002280;28;20520;-67
2023/01/13 03:27:06;;;;;;;2.90;2.80;;;;;;;;;;5005534;28;20489;-67
2023/01/13 03:29:44;;;;;;;4.05;3.10;;;;;;;;;;5004915;28;20037;-67
2023/01/13 03:32:26;;;;;;;3.67;3.30;;;;;;;;;;5003781;28;20439;-66
2023/01/13 03:34:59;;;;;;;3.92;3.53;;;;;;;;;;5004600;28;20041;-67
2023/01/13 03:37:31;;;;;;;4.47;3.33;;;;;;;;;;5005745;28;20078;-67
2023/01/13 03:40:01;;;;;;;3.60;3.30;;;;;;;;;;5004928;28;20041;-66
2023/01/13 03:42:31;;;;;;;3.42;3.10;;;;;;;;;;5004190;28;20053;-67
2023/01/13 03:44:59;;;;;;;;;;;;;;;;;;5005191;28;20503;-67
2023/01/13 03:47:40;;;;;;;4.53;3.00;;;;;;;;;;5005003;28;19917;-67
2023/01/13 03:50:18;;;;;;;4.07;3.10;;;;;;;;;;5001183;28;20484;-67
2023/01/13 03:52:54;;;;;;;3.20;3.00;;;;;;;;;;5002312;28;20049;-67
2023/01/13 03:55:28;;;;;;;2.92;2.83;;;;;;;;;;5004744;28;20568;-67
2023/01/13 03:58:13;;;;;;;3.30;3.00;;;;;;;;;;5001713;28;20072;-66
2023/01/13 04:00:49;;;;;;;3.53;3.00;;;;;;;;;;5001406;28;20049;-66
2023/01/13 04:03:35;;;;;;;3.53;3.10;;;;;;;;;;5004003;28;20038;-66
2023/01/13 04:06:22;;;;;;;3.35;3.05;;;;;;;;;;4999437;28;20096;-66
2023/01/13 04:08:53;;;;;;;3.00;2.90;;;;;;;;;;5002686;28;20045;-67
2023/01/13 04:11:33;;;;;;;3.40;3.20;;;;;;;;;;5003836;28;20038;-66
2023/01/13 04:14:02;;;;;;;3.10;2.90;;;;;;;;;;5001231;28;20030;-66
2023/01/13 04:16:27;;;;;;;4.65;3.40;;;;;;;;;;5001706;28;20077;-66
2023/01/13 04:18:53;;;;;;;3.35;3.15;;;;;;;;;;5003451;28;20127;-66
2023/01/13 04:21:18;;;;;;;3.67;3.20;;;;;;;;;;5003623;28;20156;-66
2023/01/13 04:23:44;;;;;;;3.28;3.17;;;;;;;;;;5004835;28;20045;-66
2023/01/13 04:26:10;;;;;;;3.10;2.90;;;;;;;;;;5002354;28;20041;-66
2023/01/13 04:28:35;;;;;;;4.53;3.10;;;;;;;;;;5003850;28;20146;-67
2023/01/13 04:31:01;;;;;;;3.35;3.15;;;;;;;;;;5004218;28;20123;-67
2023/01/13 04:33:27;;;;;;;3.47;3.28;;;;;;;;;;5003481;28;20775;-67
2023/01/13 04:35:53;;;;;;;3.25;3.10;;;;;;;;;;5002866;28;20038;-67
2023/01/13 04:38:20;;;;;;;4.57;3.40;;;;;;;;;;5004385;28;20417;-67
2023/01/13 04:40:46;;;;;;;3.10;2.90;;;;;;;;;;5003987;28;20037;-67
2023/01/13 04:43:14;;;;;;;3.22;3.05;;;;;;;;;;5002894;28;20151;-67
2023/01/13 04:45:41;;;;;;;3.63;3.33;;;;;;;;;;5003995;28;20436;-67
2023/01/13 04:48:06;;;;;;;3.20;3.10;;;;;;;;;;5003169;28;20032;-67
2023/01/13 04:50:32;;;;;;;3.40;3.17;;;;;;;;;;5002121;28;20045;-67
2023/01/13 04:53:00;;;;;;;3.17;3.05;;;;;;;;;;5003610;28;20657;-66
2023/01/13 04:55:25;;;;;;;3.10;2.90;;;;;;;;;;5004038;28;20072;-67
2023/01/13 04:57:51;;;;;;;3.25;2.85;;;;;;;;;;5003326;28;20109;-66
2023/01/13 05:00:20;;;;;;;3.40;3.20;;;;;;;;;;5001728;28;20466;-67
2023/01/13 05:02:49;;;;;;;2.70;2.60;;;;;;;;;;5003884;28;20052;-67
2023/01/13 05:05:15;;;;;;;3.58;3.33;;;;;;;;;;5003674;28;20346;-67
2023/01/13 05:07:40;;;;;;;3.22;3.00;;;;;;;;;;5003431;28;20033;-67
2023/01/13 05:10:06;;;;;;;3.30;3.10;;;;;;;;;;4998213;28;20045;-67
2023/01/13 05:18:00;;;;;;;3.28;3.17;;;;;;;;;;4999236;28;20739;-67
2023/01/13 05:20:26;;;;;;;3.40;3.20;;;;;;;;;;5003496;28;20037;-65
2023/01/13 05:25:39;;;;;;;3.25;3.05;;;;;;;;;;5001586;28;20041;-67
2023/01/13 05:28:06;;;;;;;3.40;3.20;;;;;;;;;;5002970;28;20026;-67
2023/01/13 05:30:37;;;;;;;3.75;3.53;;;;;;;;;;5002965;28;20049;-67
2023/01/13 05:33:03;;;;;;;3.50;3.22;;;;;;;;;;5001965;28;20030;-67
2023/01/13 05:35:29;;;;;;;4.22;3.20;;;;;;;;;;5018048;28;20041;-67
2023/01/13 05:37:55;;;;;;;3.67;3.45;;;;;;;;;;5002963;28;21081;-67
2023/01/13 05:43:20;;;;;;;3.40;3.20;;;;;;;;;;5001946;28;20049;-67
2023/01/13 05:45:58;;;;;;;3.65;3.42;;;;;;;;;;4984810;28;20041;-67
2023/01/13 05:48:43;;;;;;;3.80;3.50;;;;;;;;;;5000541;28;20029;-67
2023/01/13 05:51:11;;;;;;;3.63;3.42;;;;;;;;;;5000311;28;20030;-67
2023/01/13 05:53:36;;;;;;;4.55;3.78;;;;;;;;;;5002576;28;20034;-67
2023/01/13 05:56:04;;;;;;;3.75;3.42;;;;;;;;;;5003285;28;20053;-67
2023/01/13 05:58:30;;;;;;;3.38;3.17;;;;;;;;;;4998390;28;20033;-67
2023/01/13 06:01:00;;;;;;;3.35;3.25;;;;;;;;;;5001764;28;20038;-67
2023/01/13 06:03:26;;;;;;;3.60;3.40;;;;;;;;;;5002444;28;20064;-67
2023/01/13 06:05:57;;;;;;;3.63;3.40;;;;;;;;;;5003074;28;20492;-67
2023/01/13 06:08:23;;;;;;;3.60;3.40;;;;;;;;;;4993920;28;20044;-67
2023/01/13 06:10:48;;;;;;;3.75;3.50;;;;;;;;;;5001879;28;20037;-67
2023/01/13 06:13:14;;;;;;;3.55;3.30;;;;;;;;;;5001178;28;20040;-67
2023/01/13 06:15:40;;;;;;;3.47;3.28;;;;;;;;;;5001069;28;20113;-67
2023/01/13 06:18:05;;;;;;;3.20;3.10;;;;;;;;;;5000758;28;20049;-67
2023/01/13 06:20:31;;;;;;;3.35;3.20;;;;;;;;;;5002321;28;20033;-67
2023/01/13 06:22:57;;;;;;;3.30;3.17;;;;;;;;;;5002625;28;20045;-67
2023/01/13 06:25:59;;;;;;;3.53;3.40;;;;;;;;;;5000671;28;20034;-67
2023/01/13 06:28:24;;;;;;;3.15;3.05;;;;;;;;;;4988908;28;20167;-66
2023/01/13 06:30:55;;;;;;;4.05;3.80;;;;;;;;;;5005059;28;20488;-67
2023/01/13 06:33:28;;;;;;;3.67;3.47;;;;;;;;;;5004887;28;20109;-67
2023/01/13 06:35:58;;;;;;;3.85;3.55;;;;;;;;;;5005377;28;20042;-67
2023/01/13 06:38:26;;;;;;;3.30;3.20;;;;;;;;;;5005618;28;20153;-66
2023/01/13 06:40:52;;;;;;;3.28;3.17;;;;;;;;;;5004346;28;20697;-67
2023/01/13 06:43:18;;;;;;;3.38;3.22;;;;;;;;;;5003524;28;20041;-66
2023/01/13 06:45:51;;;;;;;3.85;3.50;;;;;;;;;;5006205;28;20041;-67
2023/01/13 06:48:18;;;;;;;3.60;3.50;;;;;;;;;;5005492;28;20038;-67
2023/01/13 06:50:44;;;;;;;3.97;3.50;;;;;;;;;;5004779;28;20045;-67
2023/01/13 06:53:09;;;;;;;3.40;3.30;;;;;;;;;;5003140;28;20033;-67
2023/01/13 06:55:35;;;;;;;3.78;3.47;;;;;;;;;;4989453;28;20413;-67
2023/01/13 06:58:01;;;;;;;4.03;3.78;;;;;;;;;;4988582;28;20198;-65
2023/01/13 07:00:26;;;;;;;3.70;3.50;;;;;;;;;;5004222;28;20034;-66
2023/01/13 07:02:52;;;;;;;3.58;3.35;;;;;;;;;;5006787;28;20040;-66
2023/01/13 07:05:19;;;;;;;3.63;3.47;;;;;;;;;;5006526;28;20535;-66
2023/01/13 07:07:44;;;;;;;3.67;3.45;;;;;;;;;;5009249;28;20049;-65
2023/01/13 07:10:12;;;;;;;3.40;3.30;;;;;;;;;;5004710;28;20499;-66
2023/01/13 07:15:24;;;;;;;3.30;3.20;;;;;;;;;;5005805;28;20029;-65
2023/01/13 07:17:50;;;;;;;3.50;3.30;;;;;;;;;;5002871;28;20072;-65
2023/01/13 07:20:16;;;;;;;3.40;3.25;;;;;;;;;;5005470;28;20524;-65
2023/01/13 07:22:42;;;;;;;3.65;3.45;;;;;;;;;;5005680;28;20511;-66
2023/01/13 07:25:08;;;;;;;3.90;3.70;;;;;;;;;;5005590;28;20080;-66
2023/01/13 07:27:34;;;;;;;3.58;3.38;;;;;;;;;;5004714;28;20042;-65
2023/01/13 07:29:59;;;;;;;3.70;3.53;;;;;;;;;;5004971;28;20388;-65
2023/01/13 07:32:25;;;;;;;3.60;3.30;;;;;;;;;;5005812;28;20480;-66
2023/01/13 07:34:50;;;;;;;3.63;3.42;;;;;;;;;;5005482;28;20045;-66
2023/01/13 07:37:16;;;;;;;3.67;3.53;;;;;;;;;;5001004;28;20060;-65
2023/01/13 07:39:44;;;;;;;2.97;2.88;;;;;;;;;;5005024;28;20038;-66
2023/01/13 07:44:53;;;;;;;2.90;2.80;;;;;;;;;;5004974;28;20065;-65
2023/01/13 07:47:22;;;;;;;3.20;3.10;;;;;;;;;;5003531;28;20073;-65
2023/01/13 07:49:48;;;;;;;3.28;3.15;;;;;;;;;;5005650;28;20148;-66
2023/01/13 07:52:13;;;;;;;3.47;3.28;;;;;;;;;;5007054;28;20220;-65
2023/01/13 07:54:39;;;;;;;3.72;3.45;;;;;;;;;;5007324;28;20045;-65
2023/01/13 07:57:04;;;;;;;3.38;3.28;;;;;;;;;;5004344;28;20246;-64
2023/01/13 07:59:30;;;;;;;3.70;3.50;;;;;;;;;;5005691;28;20030;-65
2023/01/13 08:01:55;;;;;;;3.50;3.40;;;;;;;;;;5004702;28;20045;-65
2023/01/13 08:04:21;;;;;;;4.05;3.75;;;;;;;;;;5003520;28;20181;-64
2023/01/13 08:06:47;;;;;;;3.90;3.70;;;;;;;;;;5005212;28;20042;-65
2023/01/13 08:09:13;;;;;;;4.10;3.80;;;;;;;;;;5004327;28;20041;-65
2023/01/13 08:11:38;;;;;;;6.57;3.60;;;;;;;;;;5004574;28;20046;-64
2023/01/13 08:14:04;;;;;;;3.88;3.50;;;;;;;;;;4986625;28;20076;-65
2023/01/13 08:16:32;;;;;;;3.50;3.40;;;;;;;;;;5004242;28;20068;-65
2023/01/13 08:18:57;;;;;;;3.55;3.35;;;;;;;;;;5004413;28;20118;-65
2023/01/13 08:21:23;;;;;;;3.80;3.60;;;;;;;;;;5003235;28;20029;-65
2023/01/13 08:23:49;;;;;;;3.70;3.50;;;;;;;;;;5004933;28;20030;-65
2023/01/13 08:26:16;;;;;;;3.85;3.65;;;;;;;;;;5003987;28;20041;-64
2023/01/13 08:28:43;;;;;;;3.90;3.70;;;;;;;;;;5003038;28;20030;-65
2023/01/13 08:31:11;;;;;;;3.90;3.70;;;;;;;;;;5003520;28;20033;-65
2023/01/13 08:33:37;;;;;;;3.57;3.27;;;;;;;;;;5003590;28;20124;-65
2023/01/13 08:36:08;;;;;;;3.50;3.40;;;;;;;;;;5002400;28;20112;-65
2023/01/13 08:38:35;;;;;;;3.80;3.55;;;;;;;;;;5003308;28;20021;-64
2023/01/13 08:41:08;;;;;;;3.53;3.33;;;;;;;;;;4986748;28;20134;-65
2023/01/13 08:43:34;;;;;;;3.92;3.72;;;;;;;;;;5004125;28;20040;-65
2023/01/13 08:46:03;;;;;;;3.83;3.63;;;;;;;;;;5002125;28;20034;-65
2023/01/13 08:48:29;;;;;;;3.28;3.17;;;;;;;;;;5003457;28;20034;-65
2023/01/13 08:51:07;;;;;;;3.70;3.50;;;;;;;;;;5004209;28;20029;-64
2023/01/13 08:53:33;;;;;;;4.93;4.03;;;;;;;;;;5002116;28;20042;-65
2023/01/13 08:55:59;;;;;;;3.90;3.60;;;;;;;;;;5002630;28;20065;-65
2023/01/13 08:58:25;;;;;;;3.90;3.70;;;;;;;;;;5004925;28;20061;-65
2023/01/13 09:00:50;;;;;;;4.05;3.78;;;;;;;;;;5003542;28;20457;-64
2023/01/13 09:03:16;;;;;;;4.00;3.80;;;;;;;;;;5002029;28;20065;-65
2023/01/13 09:05:41;;;;;;;3.63;3.53;;;;;;;;;;5003966;28;20029;-65
2023/01/13 09:08:07;;;;;;;3.58;3.33;;;;;;;;;;5003396;28;20195;-64
2023/01/13 09:10:34;;;;;;;3.75;3.60;;;;;;;;;;5003084;28;20049;-64
2023/01/13 09:13:12;;;;;;;3.92;3.72;;;;;;;;;;5001928;28;20034;-65
2023/01/13 09:15:39;;;;;;;4.10;3.90;;;;;;;;;;5001400;28;20034;-65
2023/01/13 09:18:05;;;;;;;3.85;3.42;;;;;;;;;;5003819;28;20033;-65
2023/01/13 09:20:30;;;;;;;4.43;4.03;;;;;;;;;;5001824;28;20041;-65
2023/01/13 09:22:56;;;;;;;4.68;4.20;;;;;;;;;;5003661;28;20492;-64
2023/01/13 09:25:22;;;;;;;4.50;4.25;;;;;;;;;;5003684;28;20446;-64
2023/01/13 09:27:47;;;;;;;4.30;4.05;;;;;;;;;;5003764;28;20042;-65
2023/01/13 09:30:13;;;;;;;4.68;4.28;;;;;;;;;;5002122;28;20096;-64
2023/01/13 09:32:38;;;;;;;4.70;4.40;;;;;;;;;;5004033;28;20103;-64
2023/01/13 09:35:06;;;;;;;4.60;4.20;;;;;;;;;;5003541;28;20034;-66
2023/01/13 09:37:35;;;;;;;4.30;4.00;;;;;;;;;;5001971;28;20030;-63
2023/01/13 09:40:04;;;;;;;4.22;4.00;;;;;;;;;;4997137;28;20037;-65
2023/01/13 09:45:42;;;;;;;4.47;4.10;;;;;;;;;;5003945;28;20038;-65
2023/01/13 09:48:13;;;;;;;4.50;4.20;;;;;;;;;;5002081;28;20036;-66
2023/01/13 09:51:02;;;;;;;4.30;4.10;;;;;;;;;;5003520;28;20444;-66
2023/01/13 09:53:35;;;;;;;4.72;4.32;;;;;;;;;;5002926;28;20255;-64
2023/01/13 09:56:01;;;;;;;4.57;4.28;;;;;;;;;;5003541;28;20054;-65
2023/01/13 09:58:26;;;;;;;4.55;4.25;;;;;;;;;;5001481;28;20064;-65
2023/01/13 10:01:17;;;;;;;4.70;4.40;;;;;;;;;;4999035;28;20033;-66
2023/01/13 10:03:43;;;;;;;4.70;4.40;;;;;;;;;;5002319;28;20046;-66
2023/01/13 10:06:16;;;;;;;4.55;4.35;;;;;;;;;;5003178;28;20033;-66
2023/01/13 10:08:46;;;;;;;4.22;3.95;;;;;;;;;;5001296;28;20092;-65
2023/01/13 10:14:27;;;;;;;4.22;3.80;;;;;;;;;;5001176;28;20041;-66
2023/01/13 10:17:11;;;;;;;4.40;4.20;;;;;;;;;;5001991;28;20110;-65
2023/01/13 10:19:51;;;;;;;4.85;4.38;;;;;;;;;;5002554;28;20212;-64
2023/01/13 10:22:23;;;;;;;4.90;4.50;;;;;;;;;;5000232;28;20557;-65
2023/01/13 10:24:54;;;;;;;4.20;4.00;;;;;;;;;;5002256;28;20409;-64
2023/01/13 10:27:33;;;;;;;4.50;4.20;;;;;;;;;;5002699;28;20029;-65
2023/01/13 10:30:14;;;;;;;4.20;4.00;;;;;;;;;;5001185;28;20037;-64
2023/01/13 10:32:42;;;;;;;4.55;4.20;;;;;;;;;;5002017;28;20118;-65
2023/01/13 10:35:08;;;;;;;4.55;4.25;;;;;;;;;;5002490;28;20404;-65
2023/01/13 10:37:33;;;;;;;5.10;4.80;;;;;;;;;;5000012;28;20563;-63
2023/01/13 10:40:03;;;;;;;4.30;4.10;;;;;;;;;;5001528;28;20467;-66
2023/01/13 10:42:29;;;;;;;4.20;3.90;;;;;;;;;;5002634;28;20424;-64
2023/01/13 10:44:57;;;;;;;5.00;3.80;;;;;;;;;;5002572;28;20658;-65
2023/01/13 10:47:23;;;;;;;4.20;3.80;;;;;;;;;;5001572;28;20038;-64
2023/01/13 10:50:11;;;;;;;4.00;3.80;;;;;;;;;;5002272;28;20382;-65
2023/01/13 10:52:42;;;;;;;4.30;4.00;;;;;;;;;;5003258;28;20072;-64
2023/01/13 10:55:29;;;;;;;5.10;4.13;;;;;;;;;;5003963;28;20033;-65
2023/01/13 10:57:55;;;;;;;3.78;3.58;;;;;;;;;;5001923;28;20065;-65
2023/01/13 11:00:30;;;;;;;3.80;3.60;;;;;;;;;;5002189;28;20443;-65
2023/01/13 11:03:24;;;;;;;3.20;3.10;;;;;;;;;;5002433;28;20048;-65
2023/01/13 11:05:58;;;;;;;3.90;3.60;;;;;;;;;;5001487;28;20049;-65
2023/01/13 11:08:30;;;;;;;4.75;4.28;;;;;;;;;;4999772;28;20038;-65
2023/01/13 11:10:58;;;;;;;4.20;3.88;;;;;;;;;;5002983;28;20034;-65
2023/01/13 11:14:31;;;;;;;4.30;3.90;;;;;;;;;;5002851;28;20110;-64
2023/01/13 11:16:27;;;;;;;4.25;3.90;;;;;;;;;;5002525;28;20478;-64
2023/01/13 11:19:01;;;;;;;3.65;3.45;;;;;;;;;;5005628;28;20046;-65
2023/01/13 11:21:33;;;;;;;3.80;3.60;;;;;;;;;;5005949;28;20033;-65
2023/01/13 11:24:09;;;;;;;3.90;3.55;;;;;;;;;;5004407;28;20060;-66
2023/01/13 11:26:46;;;;;;;3.60;3.40;;;;;;;;;;5006344;28;20034;-65
2023/01/13 11:29:26;;;;;;;4.00;3.70;;;;;;;;;;5005751;28;20041;-64
2023/01/13 11:32:00;;;;;;;3.80;3.50;;;;;;;;;;5004162;28;20484;-65
2023/01/13 11:34:38;;;;;;;4.90;4.15;;;;;;;;;;5004289;28;20029;-65
2023/01/13 11:37:13;;;;;;;3.50;3.20;;;;;;;;;;5003957;28;20037;-65
2023/01/13 11:39:48;;;;;;;3.90;3.63;;;;;;;;;;4987940;28;20038;-66
2023/01/13 11:42:25;;;;;;;4.07;3.50;;;;;;;;;;5004183;28;20488;-65
2023/01/13 11:45:01;;;;;;;5.57;3.50;;;;;;;;;;5005871;28;20500;-66
2023/01/13 11:47:28;;;;;;;3.80;3.45;;;;;;;;;;5005670;28;20104;-65
2023/01/13 11:49:54;;;;;;;3.90;3.60;;;;;;;;;;5004499;28;20054;-65
2023/01/13 11:52:31;;;;;;;6.90;3.60;;;;;;;;;;5004085;28;20080;-65
2023/01/13 11:55:25;;;;;;;3.65;3.40;;;;;;;;;;5005550;28;20037;-66
2023/01/13 11:58:10;;;;;;;3.67;3.47;;;;;;;;;;5005472;28;20461;-65
2023/01/13 12:00:44;;;;;;;4.03;3.58;;;;;;;;;;5003378;28;20481;-64
2023/01/13 12:03:22;;;;;;;3.40;3.10;;;;;;;;;;5005118;28;20348;-65
2023/01/13 12:06:10;;;;;;;5.03;3.80;;;;;;;;;;5003501;28;20509;-66
2023/01/13 12:08:54;;;;;;;3.83;3.63;;;;;;;;;;5003412;28;20022;-65
2023/01/13 12:11:29;;;;;;;3.92;3.60;;;;;;;;;;5002553;28;20092;-65
2023/01/13 12:14:18;;;;;;;4.28;3.85;;;;;;;;;;5005001;28;20459;-65
2023/01/13 12:16:49;;;;;;;3.75;3.50;;;;;;;;;;5004134;28;20690;-66
2023/01/13 12:19:18;;;;;;;3.90;3.60;;;;;;;;;;5004787;28;20397;-66
2023/01/13 12:22:03;;;;;;;4.13;3.70;;;;;;;;;;5003144;28;20394;-67
2023/01/13 12:24:49;;;;;;;3.90;3.70;;;;;;;;;;5004306;28;20540;-63
2023/01/13 12:27:37;;;;;;;4.22;4.00;;;;;;;;;;5003485;28;20030;-65
2023/01/13 12:30:35;;;;;;;3.70;3.50;;;;;;;;;;5004279;28;20654;-65
2023/01/13 12:33:39;;;;;;;3.60;3.30;;;;;;;;;;4996661;28;20034;-66
2023/01/13 12:36:08;;;;;;;3.70;3.50;;;;;;;;;;4994231;28;20057;-66
2023/01/13 12:38:39;;;;;;;4.60;4.27;;;;;;;;;;5002290;28;20090;-65
2023/01/13 12:44:15;;;;;;;5.00;4.05;;;;;;;;;;5003291;28;20044;-66
2023/01/13 12:44:27;;;;;;;3.80;3.50;;;;;;;;;;5001786;28;20145;-66
2023/01/13 12:46:55;;;;;;;4.28;3.88;;;;;;;;;;5004573;28;20045;-65
2023/01/13 12:49:34;;;;;;;4.45;4.05;;;;;;;;;;5003817;28;20038;-66
2023/01/13 12:52:07;;;;;;;4.90;3.83;;;;;;;;;;5001881;28;20156;-65
2023/01/13 12:54:36;;;;;;;4.10;3.80;;;;;;;;;;5003181;28;20135;-65
2023/01/13 12:57:22;;;;;;;4.18;3.78;;;;;;;;;;5003855;28;20090;-66
2023/01/13 13:00:07;;;;;;;3.97;3.67;;;;;;;;;;4999469;28;20041;-66
2023/01/13 13:02:38;;;;;;;4.05;3.75;;;;;;;;;;4994520;28;20099;-66
2023/01/13 13:05:12;;;;;;;4.35;3.95;;;;;;;;;;5003572;28;20034;-65
2023/01/13 13:07:49;;;;;;;3.42;3.22;;;;;;;;;;5001985;28;20260;-66
2023/01/13 13:10:23;;;;;;;4.03;3.83;;;;;;;;;;5002539;28;20040;-64
2023/01/13 13:15:39;;;;;;;5.38;3.95;;;;;;;;;;4997742;28;20065;-66
2023/01/13 13:18:07;;;;;;;5.88;4.10;;;;;;;;;;5000778;28;20045;-65
2023/01/13 13:20:54;;;;;;;6.97;4.07;;;;;;;;;;5001173;28;20048;-66
2023/01/13 13:23:46;;;;;;;8.02;4.50;;;;;;;;;;4999706;28;20481;-67
2023/01/13 13:26:18;;;;;;;4.32;3.72;;;;;;;;;;5001309;28;20663;-65
2023/01/13 13:29:15;;;;;;;7.53;4.07;;;;;;;;;;5001129;28;20540;-66
2023/01/13 13:31:52;;;;;;;6.25;3.92;;;;;;;;;;4999577;28;20504;-67
2023/01/13 13:34:24;;;;;;;6.40;3.83;;;;;;;;;;5001628;28;20034;-67
2023/01/13 13:37:20;;;;;;;4.72;3.38;;;;;;;;;;5002189;28;20046;-66
2023/01/13 13:48:28;;;;;;;4.03;3.65;;;;;;;;;;4999907;28;20087;-67
2023/01/13 13:51:01;;;;;;;6.40;4.40;;;;;;;;;;5001117;28;20080;-66
2023/01/13 13:53:31;;;;;;;7.38;4.32;;;;;;;;;;5000498;28;20108;-66
2023/01/13 13:55:59;;;;;;;9.90;4.40;;;;;;;;;;4999107;28;20408;-66
2023/01/13 13:58:27;;;;;;;4.13;3.60;;;;;;;;;;4999781;28;20205;-67
2023/01/13 14:00:53;;;;;;;5.37;4.03;;;;;;;;;;5003044;28;20069;-67
2023/01/13 14:03:26;;;;;;;4.88;3.90;;;;;;;;;;4998902;28;20042;-67
2023/01/13 14:06:06;;;;;;;6.43;3.80;;;;;;;;;;5001619;28;20112;-67
2023/01/13 14:08:37;;;;;;;4.27;3.60;;;;;;;;;;5002059;28;20733;-66
2023/01/13 14:11:24;;;;;;;8.73;4.50;;;;;;;;;;4999687;28;20595;-67
2023/01/13 14:14:02;;;;;;;9.38;4.13;;;;;;;;;;4999703;28;20052;-67
2023/01/13 14:16:28;;;;;;;5.63;3.88;;;;;;;;;;5001562;28;20049;-67
2023/01/13 14:18:54;;;;;;;4.53;3.45;;;;;;;;;;5000991;28;20029;-67
2023/01/13 14:21:19;;;;;;;7.22;3.88;;;;;;;;;;4998301;28;20485;-67
2023/01/13 14:23:55;;;;;;;7.00;3.70;;;;;;;;;;4996419;28;20485;-67
2023/01/13 14:26:26;;;;;;;5.80;4.07;;;;;;;;;;4999165;28;20049;-65
2023/01/13 14:28:52;;;;;;;4.95;4.25;;;;;;;;;;5000133;28;20044;-65
2023/01/13 14:31:18;;;;;;;4.53;3.45;;;;;;;;;;5000732;28;20041;-67
2023/01/13 14:33:46;;;;;;;4.22;3.72;;;;;;;;;;5000112;28;20034;-65
2023/01/13 14:36:35;;;;;;;10.18;4.63;;;;;;;;;;5001736;28;20044;-65
2023/01/13 14:39:04;;;;;;;;;;;;;;;;;;5000187;28;20099;-65
2023/01/13 14:41:34;;;;;;;10.63;4.17;;;;;;;;;;5001566;28;20367;-65
2023/01/13 14:44:12;;;;;;;5.22;4.22;;;;;;;;;;5001430;28;20049;-67
2023/01/13 14:46:43;;;;;;;7.10;3.83;;;;;;;;;;4985267;28;20034;-67
2023/01/13 14:49:30;;;;;;;5.18;3.83;;;;;;;;;;5002644;28;20432;-65
2023/01/13 14:52:22;;;;;;;9.18;4.05;;;;;;;;;;5003166;28;20041;-67
2023/01/13 14:54:52;;;;;;;8.32;4.20;;;;;;;;;;5004543;28;20594;-66
2023/01/13 14:57:32;;;;;;;7.43;4.35;;;;;;;;;;5005805;28;20041;-67
2023/01/13 14:59:58;;;;;;;6.57;4.32;;;;;;;;;;5004522;28;20310;-67
2023/01/13 15:02:23;;;;;;;6.70;4.40;;;;;;;;;;5007338;28;20040;-66
2023/01/13 15:04:52;;;;;;;6.18;4.20;;;;;;;;;;5006896;28;20038;-66
2023/01/13 15:07:25;;;;;;;5.15;4.38;;;;;;;;;;5005737;28;20042;-66
2023/01/13 15:09:59;;;;;;;4.82;4.15;;;;;;;;;;5006544;28;20153;-67
2023/01/13 15:12:36;;;;;;;6.47;4.55;;;;;;;;;;5002216;28;20037;-67
2023/01/13 15:15:03;;;;;;;10.15;5.40;;;;;;;;;;5003369;28;20034;-66
2023/01/13 15:17:29;;;;;;;5.07;4.25;;;;;;;;;;5008517;28;20061;-66
2023/01/13 15:19:55;;;;;;;7.32;4.20;;;;;;;;;;5009166;28;20108;-66
2023/01/13 15:22:20;;;;;;;6.55;4.30;;;;;;;;;;5008220;28;20041;-66
2023/01/13 15:24:46;;;;;;;4.63;3.90;;;;;;;;;;5009158;28;20038;-66
2023/01/13 15:27:23;;;;;;;7.10;4.43;;;;;;;;;;5009528;28;20508;-66
2023/01/13 15:29:49;;;;;;;6.25;4.60;;;;;;;;;;5008994;28;20519;-67
2023/01/13 15:32:19;;;;;;;7.20;4.43;;;;;;;;;;5007873;28;20029;-66
2023/01/13 15:34:46;;;;;;;5.68;4.32;;;;;;;;;;5009613;28;20036;-66
2023/01/13 15:37:15;;;;;;;9.02;4.25;;;;;;;;;;5009335;28;20034;-66
2023/01/13 15:39:42;;;;;;;7.00;4.47;;;;;;;;;;5007567;28;20057;-66
2023/01/13 15:47:54;;;;;;;5.78;3.95;;;;;;;;;;4975552;28;20568;-66
2023/01/13 15:50:21;;;;;;;5.85;4.10;;;;;;;;;;5007554;28;20120;-67
2023/01/13 15:52:47;;;;;;;7.05;3.75;;;;;;;;;;5009025;28;20100;-66
2023/01/13 15:55:12;;;;;;;8.73;4.10;;;;;;;;;;5009110;28;20034;-66
2023/01/13 15:57:41;;;;;;;5.07;4.05;;;;;;;;;;5007717;28;20100;-67
2023/01/13 16:00:15;;;;;;;4.95;3.90;;;;;;;;;;5008994;28;20116;-67